Time;durP1;ratioP1;P1;durP2;ratioP2;P2;SDS_P1;SDS_P2;PMS_P1;PMS_P2;Temp;Humidity;BMP_temperature;BMP_pressure;BME280_temperature;BME280_humidity;BME280_pressure;Samples;Min_cycle;Max_cycle;Signal;HPM_P1;HPM_P2
2023/11/04 00:02:02;;;;;;;8.35;3.80;;;;;;;18.92;71.79;98728.34;6209649;23;20391;-83
2023/11/04 00:07:19;;;;;;;16.25;8.00;;;;;;;18.66;72.19;98753.22;6211151;23;20783;-84
2023/11/04 00:09:44;;;;;;;20.50;10.57;;;;;;;18.37;72.26;98757.09;6209660;23;20017;-84
2023/11/04 00:12:11;;;;;;;25.70;11.93;;;;;;;18.36;72.54;98770.88;6209855;23;20012;-84
2023/11/04 00:14:37;;;;;;;25.40;11.90;;;;;;;17.68;75.50;98763.25;6209782;23;20019;-84
2023/11/04 00:17:02;;;;;;;23.33;10.30;;;;;;;17.95;76.59;98798.66;6209477;23;20004;-84
2023/11/04 00:19:28;;;;;;;21.55;11.32;;;;;;;17.71;77.41;98826.53;6209813;23;20036;-83
2023/11/04 00:21:53;;;;;;;20.55;9.95;;;;;;;17.53;78.58;98825.53;6209607;23;20015;-83
2023/11/04 00:24:19;;;;;;;29.33;13.98;;;;;;;17.20;81.04;98838.97;6209828;23;20015;-83
2023/11/04 00:26:44;;;;;;;24.35;13.73;;;;;;;16.81;83.19;98794.28;6209199;23;20008;-83
2023/11/04 00:29:10;;;;;;;25.45;13.60;;;;;;;16.76;85.00;98829.31;6209986;23;20001;-84
2023/11/04 00:31:35;;;;;;;26.15;14.57;;;;;;;16.72;85.00;98806.75;6211059;23;20005;-83
2023/11/04 00:34:02;;;;;;;28.85;13.95;;;;;;;16.52;86.90;98817.78;6209333;23;20483;-83
2023/11/04 00:36:28;;;;;;;28.58;14.75;;;;;;;16.60;86.08;98793.72;6209349;23;20009;-83
2023/11/04 00:38:53;;;;;;;33.33;15.68;;;;;;;16.68;86.25;98828.06;6209427;23;20019;-83
2023/11/04 00:41:19;;;;;;;28.92;15.07;;;;;;;16.50;88.61;98815.38;6208756;23;20008;-83
2023/11/04 00:43:45;;;;;;;30.63;15.75;;;;;;;16.18;89.81;98805.28;6209057;23;20018;-82
2023/11/04 00:46:10;;;;;;;28.60;15.73;;;;;;;16.25;90.54;98809.22;6208850;23;20099;-84
2023/11/04 00:48:36;;;;;;;27.02;14.10;;;;;;;16.27;90.64;98817.81;6208648;23;20104;-84
2023/11/04 00:51:02;;;;;;;25.58;13.32;;;;;;;16.36;90.03;98796.44;6209074;23;20091;-83
2023/11/04 00:53:28;;;;;;;27.30;12.98;;;;;;;16.20;90.98;98789.66;6210645;23;20004;-83
2023/11/04 00:55:53;;;;;;;26.15;13.57;;;;;;;16.18;91.88;98803.41;6208914;23;20019;-83
2023/11/04 00:58:18;;;;;;;24.65;12.02;;;;;;;16.52;90.45;98780.13;6208959;23;20019;-83
2023/11/04 01:00:44;;;;;;;23.50;11.75;;;;;;;16.48;90.66;98752.97;6209135;23;20481;-83
2023/11/04 01:03:09;;;;;;;23.73;10.85;;;;;;;16.52;91.55;98794.38;6210564;23;20008;-83
2023/11/04 01:05:34;;;;;;;20.45;10.10;;;;;;;16.65;90.12;98807.13;6208660;23;20015;-83
2023/11/04 01:08:00;;;;;;;20.42;9.82;;;;;;;16.67;90.11;98744.91;6208799;23;20357;-84
2023/11/04 01:10:26;;;;;;;15.35;8.23;;;;;;;16.59;91.40;98740.19;6208791;23;20577;-83
2023/11/04 01:12:51;;;;;;;19.42;8.20;;;;;;;16.67;91.65;98809.50;6210467;23;20040;-83
2023/11/04 01:15:17;;;;;;;17.65;7.43;;;;;;;16.84;90.81;98815.25;6208463;23;20315;-83
2023/11/04 01:17:42;;;;;;;13.43;8.18;;;;;;;16.97;89.73;98759.06;6208539;23;20012;-83
2023/11/04 01:20:08;;;;;;;14.50;6.80;;;;;;;16.59;92.40;98703.31;6210416;23;20465;-83
2023/11/04 01:22:35;;;;;;;14.35;6.60;;;;;;;16.38;93.54;98753.91;6208613;23;20012;-83
2023/11/04 01:25:02;;;;;;;15.57;7.78;;;;;;;16.34;94.12;98841.66;6209070;23;20086;-83
2023/11/04 01:27:27;;;;;;;15.43;6.40;;;;;;;16.60;94.35;98815.25;6208702;23;20023;-84
2023/11/04 01:29:53;;;;;;;9.23;5.65;;;;;;;16.86;94.21;98753.81;6210441;23;20227;-82
2023/11/04 01:32:18;;;;;;;11.50;5.40;;;;;;;17.13;93.89;98767.69;6208729;23;20008;-83
2023/11/04 01:34:44;;;;;;;12.73;4.85;;;;;;;17.35;96.06;98764.38;6208963;23;20331;-83
2023/11/04 01:37:10;;;;;;;11.65;4.57;;;;;;;17.60;97.33;98757.75;6208252;23;20008;-83
2023/11/04 01:39:35;;;;;;;11.18;4.25;;;;;;;18.17;95.27;98789.88;6208423;23;20044;-83
2023/11/04 01:42:08;;;;;;;12.65;4.43;;;;;;;18.44;93.27;98780.97;6208299;23;20513;-83
2023/11/04 01:44:34;;;;;;;15.27;4.45;;;;;;;18.61;92.03;98773.03;6207843;23;20004;-81
2023/11/04 01:47:00;;;;;;;15.90;4.80;;;;;;;18.78;91.32;98791.28;6208371;23;20012;-84
2023/11/04 01:49:27;;;;;;;13.13;5.18;;;;;;;18.86;89.92;98800.63;6208335;23;20064;-83
2023/11/04 01:51:53;;;;;;;11.18;4.45;;;;;;;18.69;86.91;98790.41;6208437;23;20015;-83
2023/11/04 01:54:19;;;;;;;11.45;4.65;;;;;;;18.73;85.00;98788.69;6210207;23;20087;-83
2023/11/04 01:56:45;;;;;;;12.20;4.78;;;;;;;18.31;86.70;98749.38;6208394;23;20012;-82
2023/11/04 01:59:12;;;;;;;12.35;4.63;;;;;;;18.27;87.84;98773.50;6212273;23;20062;-83
2023/11/04 02:01:40;;;;;;;11.25;4.60;;;;;;;18.30;87.49;98794.47;6210521;23;20342;-83
2023/11/04 02:04:06;;;;;;;;;;;;;;;18.54;85.56;98815.84;6211317;23;20009;-83
2023/11/04 02:06:31;;;;;;;12.63;4.68;;;;;;;18.35;86.06;98844.84;6210016;23;19929;-83
2023/11/04 02:09:00;;;;;;;12.88;5.72;;;;;;;18.02;90.94;98874.59;6210766;23;20008;-84
2023/11/04 02:11:26;;;;;;;15.85;4.32;;;;;;;18.26;91.27;98863.63;6211216;23;20087;-84
2023/11/04 02:13:51;;;;;;;9.95;5.13;;;;;;;18.17;94.09;98797.97;6211731;23;20581;-86
2023/11/04 02:16:16;;;;;;;12.95;5.10;;;;;;;17.53;100.00;98679.16;6212038;23;20390;-84
2023/11/04 02:18:43;;;;;;;16.40;5.68;;;;;;;16.91;100.00;98746.75;6211612;23;20015;-84
2023/11/04 02:21:08;;;;;;;17.00;6.85;;;;;;;17.26;100.00;98743.50;6211819;23;20009;-85
2023/11/04 02:23:34;;;;;;;15.45;5.60;;;;;;;16.95;100.00;98728.94;6212239;23;20104;-86
2023/11/04 02:25:59;;;;;;;14.07;5.47;;;;;;;16.81;100.00;98713.50;6211963;23;20020;-85
2023/11/04 02:28:25;;;;;;;16.33;6.85;;;;;;;17.17;100.00;98721.00;6211863;23;20064;-85
2023/11/04 02:30:50;;;;;;;16.02;6.38;;;;;;;16.81;100.00;98683.88;6213734;23;20016;-85
2023/11/04 02:33:16;;;;;;;16.92;6.30;;;;;;;16.76;100.00;98710.88;6212110;23;20000;-85
2023/11/04 02:35:44;;;;;;;15.10;5.72;;;;;;;16.75;100.00;98706.56;6211710;23;20077;-86
2023/11/04 02:38:09;;;;;;;12.75;5.68;;;;;;;16.52;100.00;98680.56;6211517;23;20362;-85
2023/11/04 02:40:35;;;;;;;21.50;6.20;;;;;;;16.86;100.00;98669.56;6211735;23;20453;-85
2023/11/04 02:43:00;;;;;;;16.00;6.63;;;;;;;17.01;100.00;98669.28;6211783;23;20082;-84
2023/11/04 02:45:25;;;;;;;14.02;6.47;;;;;;;16.81;100.00;98666.94;6211632;23;20090;-85
2023/11/04 02:47:51;;;;;;;15.45;6.03;;;;;;;16.96;100.00;98676.66;6211759;23;20039;-86
2023/11/04 02:50:17;;;;;;;12.23;6.32;;;;;;;16.60;100.00;98642.22;6211763;23;20096;-86
2023/11/04 02:52:42;;;;;;;16.10;6.85;;;;;;;16.51;100.00;98654.72;6211628;23;20008;-85
2023/11/04 02:55:08;;;;;;;13.68;5.60;;;;;;;16.72;100.00;98650.63;6212026;23;20015;-85
2023/11/04 02:57:34;;;;;;;12.38;5.47;;;;;;;16.65;100.00;98677.09;6212146;23;20091;-85
2023/11/04 02:59:59;;;;;;;16.83;5.40;;;;;;;16.85;100.00;98687.59;6212102;23;20000;-84
2023/11/04 03:02:24;;;;;;;17.08;5.63;;;;;;;16.77;100.00;98685.53;6211849;23;20063;-86
2023/11/04 03:04:50;;;;;;;11.07;4.75;;;;;;;16.65;100.00;98647.50;6212554;23;20004;-85
2023/11/04 03:07:15;;;;;;;10.00;5.05;;;;;;;16.67;100.00;98678.44;6211586;23;20008;-85
2023/11/04 03:09:41;;;;;;;10.18;5.10;;;;;;;16.68;100.00;98660.38;6212067;23;20032;-85
2023/11/04 03:12:06;;;;;;;17.90;6.60;;;;;;;16.76;100.00;98683.16;6211482;23;20091;-84
2023/11/04 03:14:32;;;;;;;10.05;4.72;;;;;;;16.89;100.00;98660.09;6211345;23;20013;-86
2023/11/04 03:16:57;;;;;;;12.95;5.18;;;;;;;16.86;100.00;98678.44;6211176;23;20008;-85
2023/11/04 03:19:23;;;;;;;12.15;5.40;;;;;;;17.00;100.00;98694.63;6211801;23;20091;-85
2023/11/04 03:21:48;;;;;;;14.38;5.60;;;;;;;16.99;100.00;98686.84;6211045;23;20806;-85
2023/11/04 03:24:14;;;;;;;12.07;5.97;;;;;;;16.75;100.00;98650.03;6211428;23;20012;-84
2023/11/04 03:26:40;;;;;;;15.38;7.20;;;;;;;16.81;100.00;98670.41;6210817;23;20017;-84
2023/11/04 03:29:06;;;;;;;12.80;6.63;;;;;;;16.94;100.00;98698.50;6210811;23;20391;-85
2023/11/04 03:31:31;;;;;;;11.88;6.22;;;;;;;16.77;100.00;98693.59;6211328;23;20045;-85
2023/11/04 03:33:57;;;;;;;18.60;7.25;;;;;;;16.68;100.00;98715.00;6211155;23;20012;-85
2023/11/04 03:36:24;;;;;;;12.93;6.60;;;;;;;16.60;100.00;98699.53;6211070;23;20015;-84
2023/11/04 03:38:50;;;;;;;14.95;5.88;;;;;;;16.64;100.00;98708.63;6211178;23;20040;-86
2023/11/04 03:41:16;;;;;;;15.23;6.57;;;;;;;16.62;100.00;98712.69;6211207;23;20351;-85
2023/11/04 03:43:41;;;;;;;14.35;6.18;;;;;;;16.75;100.00;98703.88;6210647;23;20070;-85
2023/11/04 03:46:07;;;;;;;11.60;5.85;;;;;;;16.60;100.00;98702.22;6211063;23;20047;-85
2023/11/04 03:48:33;;;;;;;14.65;6.05;;;;;;;16.58;100.00;98703.59;6210957;23;20099;-85
2023/11/04 03:50:58;;;;;;;10.50;5.47;;;;;;;16.68;100.00;98703.47;6210876;23;20008;-85
2023/11/04 03:53:24;;;;;;;12.48;6.15;;;;;;;16.38;100.00;98678.56;6211148;23;20009;-86
2023/11/04 03:55:49;;;;;;;13.60;5.88;;;;;;;16.17;100.00;98685.34;6210789;23;20009;-85
2023/11/04 03:58:14;;;;;;;12.25;5.45;;;;;;;16.35;100.00;98689.94;6211002;23;20035;-86
2023/11/04 04:00:40;;;;;;;12.65;5.50;;;;;;;16.62;100.00;98710.00;6210768;23;20427;-86
2023/11/04 04:03:07;;;;;;;10.40;5.57;;;;;;;16.65;100.00;98731.75;6210619;23;20010;-85
2023/11/04 04:05:33;;;;;;;9.07;5.25;;;;;;;16.82;100.00;98752.81;6211055;23;20179;-85
2023/11/04 04:07:58;;;;;;;12.25;5.88;;;;;;;16.63;100.00;98735.81;6210533;23;20123;-85
2023/11/04 04:10:25;;;;;;;10.60;6.32;;;;;;;16.51;100.00;98703.97;6210704;23;20039;-85
2023/11/04 04:12:51;;;;;;;13.85;5.68;;;;;;;16.57;100.00;98683.16;6210645;23;20028;-85
2023/11/04 04:15:17;;;;;;;11.15;5.63;;;;;;;16.27;100.00;98677.13;6210746;23;20027;-85
2023/11/04 04:17:43;;;;;;;13.73;5.75;;;;;;;16.21;100.00;98689.06;6210248;23;20485;-86
2023/11/04 04:20:11;;;;;;;10.52;5.20;;;;;;;16.22;100.00;98650.28;6210366;23;20012;-85
2023/11/04 04:22:38;;;;;;;13.18;5.57;;;;;;;16.17;100.00;98643.09;6211481;23;20013;-85
2023/11/04 04:25:04;;;;;;;13.10;6.20;;;;;;;16.32;100.00;98652.84;6210478;23;20462;-85
2023/11/04 04:27:30;;;;;;;9.60;4.93;;;;;;;16.38;100.00;98634.75;6210414;23;20073;-86
2023/11/04 04:29:55;;;;;;;10.50;4.90;;;;;;;15.91;100.00;98637.25;6210608;23;20015;-84
2023/11/04 04:32:21;;;;;;;15.05;5.60;;;;;;;15.93;100.00;98627.03;6210343;23;20005;-84
2023/11/04 04:34:47;;;;;;;11.63;5.40;;;;;;;16.24;100.00;98629.28;6210438;23;20034;-85
2023/11/04 04:37:13;;;;;;;13.55;6.30;;;;;;;16.35;100.00;98613.81;6210963;23;20083;-85
2023/11/04 04:39:39;;;;;;;12.70;5.30;;;;;;;16.23;100.00;98638.47;6211922;23;20095;-85
2023/11/04 04:42:04;;;;;;;11.80;5.57;;;;;;;16.28;100.00;98603.41;6210124;23;20051;-85
2023/11/04 04:44:31;;;;;;;11.45;5.10;;;;;;;15.81;100.00;98602.44;6210157;23;20467;-85
2023/11/04 04:46:57;;;;;;;13.52;6.10;;;;;;;15.86;100.00;98607.78;6209780;23;20017;-86
2023/11/04 04:49:23;;;;;;;11.73;5.47;;;;;;;15.87;100.00;98560.97;6209445;23;20048;-86
2023/11/04 04:51:48;;;;;;;13.40;6.00;;;;;;;15.84;100.00;98591.13;6210049;23;20009;-84
2023/11/04 04:54:14;;;;;;;11.60;4.97;;;;;;;15.56;100.00;98584.75;6210034;23;20023;-84
2023/11/04 04:56:39;;;;;;;13.07;5.15;;;;;;;15.50;100.00;98594.75;6210089;23;20013;-85
2023/11/04 04:59:05;;;;;;;12.10;5.68;;;;;;;15.74;100.00;98594.75;6209645;23;20034;-84
2023/11/04 05:01:31;;;;;;;10.90;5.78;;;;;;;15.75;100.00;98627.78;6211323;23;20059;-84
2023/11/04 05:03:56;;;;;;;13.38;5.93;;;;;;;15.98;100.00;98631.56;6209988;23;20072;-85
2023/11/04 05:06:22;;;;;;;8.82;5.32;;;;;;;15.92;100.00;98630.81;6210155;23;20008;-85
2023/11/04 05:08:47;;;;;;;9.05;5.00;;;;;;;15.29;100.00;98593.41;6209655;23;20016;-85
2023/11/04 05:11:13;;;;;;;12.30;6.15;;;;;;;15.82;100.00;98639.00;6209928;23;20358;-84
2023/11/04 05:13:39;;;;;;;9.82;6.03;;;;;;;15.81;100.00;98645.47;6209895;23;20370;-85
2023/11/04 05:16:05;;;;;;;15.88;6.55;;;;;;;15.56;100.00;98658.09;6209957;23;20004;-85
2023/11/04 05:18:30;;;;;;;14.23;6.80;;;;;;;15.65;100.00;98645.63;6211399;23;20020;-85
2023/11/04 05:20:58;;;;;;;13.10;6.00;;;;;;;15.51;100.00;98644.72;6209936;23;20009;-83
2023/11/04 05:23:24;;;;;;;;;;;;;;;15.32;100.00;98630.41;6210516;23;20431;-84
2023/11/04 05:25:50;;;;;;;12.38;5.65;;;;;;;15.43;100.00;98626.53;6209903;23;19910;-84
2023/11/04 05:28:16;;;;;;;14.57;6.15;;;;;;;15.92;100.00;98617.38;6209776;23;20062;-84
2023/11/04 05:30:41;;;;;;;12.82;6.03;;;;;;;15.44;100.00;98634.28;6209258;23;20051;-83
2023/11/04 05:33:07;;;;;;;13.63;6.18;;;;;;;15.31;100.00;98626.94;6209554;23;20017;-84
2023/11/04 05:35:32;;;;;;;10.27;5.97;;;;;;;15.36;100.00;98609.94;6210118;23;20012;-84
2023/11/04 05:37:58;;;;;;;12.32;6.05;;;;;;;15.24;100.00;98581.63;6210126;23;20013;-84
2023/11/04 05:40:24;;;;;;;11.73;6.13;;;;;;;15.30;100.00;98573.50;6209530;23;20501;-83
2023/11/04 05:42:50;;;;;;;15.27;6.00;;;;;;;15.36;100.00;98572.34;6210022;23;20062;-84
2023/11/04 05:45:15;;;;;;;15.25;6.38;;;;;;;15.25;100.00;98560.94;6210028;23;20423;-84
2023/11/04 05:47:42;;;;;;;15.30;6.72;;;;;;;15.39;100.00;98544.94;6209643;23;20383;-85
2023/11/04 05:50:08;;;;;;;15.95;8.60;;;;;;;15.33;100.00;98521.91;6209592;23;20005;-85
2023/11/04 05:52:33;;;;;;;15.73;8.40;;;;;;;15.52;100.00;98506.59;6209970;23;20387;-85
2023/11/04 05:54:58;;;;;;;17.58;9.75;;;;;;;15.49;100.00;98544.81;6209774;23;20005;-84
2023/11/04 05:57:24;;;;;;;15.20;9.82;;;;;;;15.59;100.00;98516.97;6210281;23;20009;-85
2023/11/04 05:59:49;;;;;;;14.90;9.30;;;;;;;15.56;100.00;98506.81;6210033;23;20012;-85
2023/11/04 06:02:15;;;;;;;22.73;12.57;;;;;;;15.27;100.00;98484.34;6209379;23;20020;-84
2023/11/04 06:04:40;;;;;;;20.10;12.25;;;;;;;15.45;100.00;98500.78;6210157;23;20008;-84
2023/11/04 06:07:06;;;;;;;20.95;13.43;;;;;;;15.64;100.00;98488.16;6209815;23;20012;-84
2023/11/04 06:09:32;;;;;;;24.83;14.23;;;;;;;15.72;100.00;98469.78;6211259;23;20138;-85
2023/11/04 06:11:59;;;;;;;21.13;13.23;;;;;;;15.54;100.00;98471.38;6210108;23;20618;-85
2023/11/04 06:14:28;;;;;;;19.00;12.43;;;;;;;15.85;100.00;98477.13;6210224;23;20004;-84
2023/11/04 06:16:54;;;;;;;13.23;9.07;;;;;;;15.82;100.00;98473.16;6209623;23;20087;-85
2023/11/04 06:19:19;;;;;;;16.83;8.77;;;;;;;15.76;100.00;98463.56;6210118;23;20043;-85
2023/11/04 06:21:47;;;;;;;13.95;8.23;;;;;;;15.95;100.00;98508.44;6209462;23;20037;-83
2023/11/04 06:24:13;;;;;;;;;;;;;;;16.02;100.00;98496.25;6210426;23;20508;-84
2023/11/04 06:26:38;;;;;;;17.55;8.63;;;;;;;15.82;100.00;98430.13;6210129;23;19912;-85
2023/11/04 06:29:04;;;;;;;25.52;15.20;;;;;;;15.74;100.00;98454.19;6209405;23;20054;-84
2023/11/04 06:31:30;;;;;;;19.52;9.70;;;;;;;15.92;100.00;98433.78;6210029;23;20013;-85
2023/11/04 06:33:56;;;;;;;33.25;19.20;;;;;;;15.93;100.00;98414.63;6210235;23;20750;-84
2023/11/04 06:36:21;;;;;;;51.58;30.92;;;;;;;15.93;100.00;98397.72;6209782;23;20445;-83
2023/11/04 06:38:47;;;;;;;20.60;11.48;;;;;;;15.74;100.00;98374.38;6211404;23;20350;-83
2023/11/04 06:41:16;;;;;;;14.23;7.50;;;;;;;15.61;100.00;98386.66;6210145;23;20009;-85
2023/11/04 06:43:44;;;;;;;14.45;7.20;;;;;;;15.66;100.00;98367.75;6210701;23;20012;-85
2023/11/04 06:46:09;;;;;;;13.50;7.78;;;;;;;15.52;100.00;98350.78;6211725;23;20067;-84
2023/11/04 06:48:35;;;;;;;10.95;6.85;;;;;;;15.51;100.00;98392.19;6211297;23;20024;-84
2023/11/04 06:51:00;;;;;;;16.55;8.48;;;;;;;15.44;100.00;98379.09;6211570;23;20083;-85
2023/11/04 06:53:26;;;;;;;13.27;7.85;;;;;;;15.76;100.00;98398.28;6211421;23;20005;-84
2023/11/04 06:55:52;;;;;;;27.33;12.55;;;;;;;15.70;100.00;98380.59;6211594;23;20042;-84
2023/11/04 06:58:17;;;;;;;30.75;16.40;;;;;;;15.74;100.00;98387.81;6210931;23;20004;-83
2023/11/04 07:00:43;;;;;;;42.05;22.67;;;;;;;15.88;100.00;98374.41;6211003;23;20008;-84
2023/11/04 07:03:08;;;;;;;32.30;17.17;;;;;;;15.95;100.00;98374.81;6211388;23;20001;-84
2023/11/04 07:05:36;;;;;;;16.73;8.13;;;;;;;16.28;100.00;98393.59;6211310;23;20558;-84
2023/11/04 07:08:02;;;;;;;15.07;6.15;;;;;;;16.43;100.00;98363.72;6213106;23;20027;-84
2023/11/04 07:10:27;;;;;;;11.73;4.75;;;;;;;16.40;100.00;98371.59;6211220;23;20004;-84
2023/11/04 07:12:53;;;;;;;6.95;3.40;;;;;;;16.76;100.00;98393.22;6211186;23;20019;-84
2023/11/04 07:15:18;;;;;;;7.22;3.80;;;;;;;17.25;100.00;98404.34;6211082;23;20431;-85
2023/11/04 07:17:44;;;;;;;13.95;5.28;;;;;;;17.66;100.00;98438.44;6210940;23;20005;-85
2023/11/04 07:20:10;;;;;;;10.32;3.60;;;;;;;17.96;100.00;98472.03;6210609;23;20578;-83
2023/11/04 07:22:36;;;;;;;8.10;3.03;;;;;;;18.10;100.00;98503.50;6210982;23;20358;-85
2023/11/04 07:25:03;;;;;;;7.05;2.83;;;;;;;17.92;100.00;98489.91;6211437;23;20016;-85
2023/11/04 07:27:28;;;;;;;9.63;3.97;;;;;;;17.76;100.00;98499.44;6210290;23;20005;-85
2023/11/04 07:29:54;;;;;;;9.20;4.13;;;;;;;17.59;100.00;98489.28;6212551;23;20037;-85
2023/11/04 07:32:19;;;;;;;9.35;4.55;;;;;;;17.63;100.00;98539.59;6210768;23;20474;-85
2023/11/04 07:34:45;;;;;;;10.45;4.95;;;;;;;17.59;100.00;98508.13;6211195;23;20010;-84
2023/11/04 07:37:10;;;;;;;12.40;5.97;;;;;;;17.49;100.00;98495.72;6210976;23;20032;-84
2023/11/04 07:39:38;;;;;;;12.45;5.75;;;;;;;17.39;100.00;98468.97;6210772;23;20016;-83
2023/11/04 07:42:04;;;;;;;15.30;6.13;;;;;;;17.66;100.00;98490.47;6210331;23;20037;-84
2023/11/04 07:44:30;;;;;;;10.77;4.88;;;;;;;17.74;100.00;98488.94;6210437;23;20032;-84
2023/11/04 07:46:59;;;;;;;9.57;4.90;;;;;;;17.76;100.00;98499.44;6210456;23;20062;-84
2023/11/04 07:49:26;;;;;;;10.60;4.03;;;;;;;17.63;100.00;98480.28;6210320;23;20495;-83
2023/11/04 07:51:51;;;;;;;9.55;3.60;;;;;;;17.79;100.00;98480.72;6209573;23;20091;-84
2023/11/04 07:54:16;;;;;;;14.55;10.60;;;;;;;17.84;100.00;98482.56;6209856;23;20032;-84
2023/11/04 07:56:43;;;;;;;8.48;4.75;;;;;;;17.93;100.00;98450.25;6210073;23;20015;-84
2023/11/04 07:59:09;;;;;;;23.00;13.02;;;;;;;18.12;100.00;98441.97;6210988;23;20015;-83
2023/11/04 08:01:34;;;;;;;7.50;3.33;;;;;;;18.27;100.00;98444.28;6209223;23;20009;-86
2023/11/04 08:03:59;;;;;;;18.50;10.75;;;;;;;18.26;100.00;98413.00;6211133;23;20083;-83
2023/11/04 08:06:25;;;;;;;19.48;9.75;;;;;;;18.55;100.00;98417.09;6209268;23;20014;-84
2023/11/04 08:08:51;;;;;;;12.18;7.40;;;;;;;18.32;100.00;98413.66;6209696;23;20103;-83
2023/11/04 08:11:16;;;;;;;11.45;5.53;;;;;;;18.43;100.00;98407.69;6209153;23;20009;-81
2023/11/04 08:13:42;;;;;;;7.90;4.15;;;;;;;18.47;100.00;98395.16;6209433;23;20015;-82
2023/11/04 08:16:09;;;;;;;6.85;3.55;;;;;;;18.41;100.00;98391.00;6210473;23;20480;-81
2023/11/04 08:18:35;;;;;;;15.43;7.47;;;;;;;18.48;100.00;98401.34;6209443;23;20004;-83
2023/11/04 08:21:01;;;;;;;9.80;4.32;;;;;;;18.46;100.00;98380.06;6208019;23;20314;-84
2023/11/04 08:23:26;;;;;;;5.40;2.25;;;;;;;18.48;100.00;98372.44;6207025;23;20009;-84
2023/11/04 08:25:52;;;;;;;8.73;2.33;;;;;;;18.66;100.00;98364.41;6207684;23;20005;-83
2023/11/04 08:28:17;;;;;;;4.82;1.70;;;;;;;18.65;100.00;98352.81;6207681;23;20020;-82
2023/11/04 08:30:42;;;;;;;4.70;1.42;;;;;;;18.52;100.00;98320.53;6208593;23;20001;-82
2023/11/04 08:33:08;;;;;;;2.28;1.10;;;;;;;18.60;100.00;98317.06;6207263;23;20020;-81
2023/11/04 08:35:33;;;;;;;3.08;1.20;;;;;;;18.76;100.00;98323.63;6209163;23;20048;-83
2023/11/04 08:37:59;;;;;;;4.55;1.33;;;;;;;18.77;100.00;98295.47;6209361;23;20068;-84
2023/11/04 08:40:24;;;;;;;4.13;1.30;;;;;;;18.91;100.00;98272.97;6210376;23;20009;-84
2023/11/04 08:42:53;;;;;;;3.50;1.40;;;;;;;18.77;100.00;98252.28;6209044;23;20004;-84
2023/11/04 08:45:20;;;;;;;4.32;1.75;;;;;;;18.81;100.00;98247.06;6210753;23;20099;-84
2023/11/04 08:47:46;;;;;;;5.07;1.90;;;;;;;18.59;100.00;98232.59;6210695;23;20328;-84
2023/11/04 08:50:11;;;;;;;4.82;1.65;;;;;;;18.93;100.00;98255.34;6209865;23;20013;-83
2023/11/04 08:52:38;;;;;;;5.30;2.30;;;;;;;19.13;100.00;98267.41;6209825;23;20464;-85
2023/11/04 08:55:05;;;;;;;5.18;1.40;;;;;;;19.41;100.00;98291.38;6209763;23;20036;-82
2023/11/04 08:57:34;;;;;;;3.80;1.63;;;;;;;19.63;99.99;98293.88;6209685;23;20012;-85
2023/11/04 09:00:00;;;;;;;4.00;1.60;;;;;;;19.61;100.00;98277.16;6210009;23;20032;-85
2023/11/04 09:02:26;;;;;;;6.07;1.90;;;;;;;19.59;100.00;98282.09;6209820;23;20031;-84
2023/11/04 09:04:51;;;;;;;3.08;1.70;;;;;;;19.82;100.00;98273.81;6209430;23;20067;-85
2023/11/04 09:07:18;;;;;;;5.35;1.40;;;;;;;19.44;100.00;98248.28;6209467;23;20047;-85
2023/11/04 09:09:43;;;;;;;5.30;1.48;;;;;;;19.58;100.00;98250.00;6209803;23;20019;-84
2023/11/04 09:12:08;;;;;;;4.65;1.60;;;;;;;19.82;100.00;98292.75;6209474;23;20016;-84
2023/11/04 09:14:36;;;;;;;6.65;1.83;;;;;;;19.55;100.00;98308.19;6210088;23;20083;-84
2023/11/04 09:17:01;;;;;;;4.07;1.35;;;;;;;19.56;100.00;98336.84;6217141;23;20442;-84
2023/11/04 09:19:27;;;;;;;7.22;2.00;;;;;;;19.15;100.00;98346.25;6218821;23;20496;-83
2023/11/04 09:21:52;;;;;;;6.95;2.30;;;;;;;18.95;100.00;98387.38;6218431;23;20351;-84
2023/11/04 09:24:18;;;;;;;6.38;1.90;;;;;;;18.55;100.00;98419.78;6218882;23;20004;-84
2023/11/04 09:26:45;;;;;;;6.72;1.98;;;;;;;18.08;100.00;98449.88;6220949;23;20009;-83
2023/11/04 09:29:11;;;;;;;6.43;1.98;;;;;;;17.38;100.00;98513.19;6225641;23;20011;-83
2023/11/04 09:31:37;;;;;;;5.82;2.63;;;;;;;17.09;100.00;98578.94;6225390;23;20111;-89
2023/11/04 09:34:04;;;;;;;8.38;3.55;;;;;;;16.72;100.00;98591.41;6227311;23;20016;-83
2023/11/04 09:36:30;;;;;;;6.33;2.77;;;;;;;16.27;100.00;98539.94;6226088;23;20015;-84
2023/11/04 09:38:55;;;;;;;4.13;2.22;;;;;;;16.09;100.00;98616.88;6218305;23;20243;-84
2023/11/04 09:41:22;;;;;;;3.78;1.70;;;;;;;15.71;100.00;98567.63;6213393;23;20005;-84
2023/11/04 09:43:49;;;;;;;6.68;1.08;;;;;;;15.72;100.00;98567.38;6214528;23;20004;-85
2023/11/04 09:46:14;;;;;;;7.43;1.48;;;;;;;15.20;100.00;98445.50;6215951;23;20102;-84
2023/11/04 09:48:40;;;;;;;6.97;1.40;;;;;;;14.85;100.00;98453.75;6214391;23;20399;-84
2023/11/04 09:51:11;;;;;;;5.40;1.48;;;;;;;14.81;100.00;98465.31;6215188;23;20020;-86
2023/11/04 09:53:38;;;;;;;8.68;1.88;;;;;;;14.73;100.00;98452.53;6214981;23;20004;-86
2023/11/04 09:56:04;;;;;;;4.70;1.13;;;;;;;14.90;100.00;98454.78;6215200;23;20092;-85
2023/11/04 09:58:30;;;;;;;5.03;0.70;;;;;;;15.04;100.00;98458.34;6214451;23;20354;-86
2023/11/04 10:00:57;;;;;;;4.65;0.90;;;;;;;15.07;100.00;98452.41;6213554;23;20012;-86
2023/11/04 10:03:22;;;;;;;2.85;1.30;;;;;;;15.22;100.00;98462.94;6212365;23;20009;-85
2023/11/04 10:05:48;;;;;;;3.78;1.52;;;;;;;15.33;100.00;98441.34;6212629;23;20016;-85
2023/11/04 10:08:13;;;;;;;15.98;6.55;;;;;;;15.23;100.00;98418.09;6212698;23;20001;-86
2023/11/04 10:10:39;;;;;;;5.15;0.80;;;;;;;15.18;100.00;98396.66;6212017;23;20012;-88
2023/11/04 10:13:05;;;;;;;4.63;0.85;;;;;;;14.98;100.00;98330.66;6212292;23;20051;-89
2023/11/04 10:15:31;;;;;;;5.45;0.88;;;;;;;15.15;100.00;98277.22;6211485;23;20055;-86
2023/11/04 10:17:56;;;;;;;12.32;1.85;;;;;;;14.88;100.00;98234.19;6212224;23;20005;-86
2023/11/04 10:20:22;;;;;;;7.38;1.73;;;;;;;14.92;100.00;98181.53;6214278;23;20626;-85
2023/11/04 10:22:48;;;;;;;3.05;0.63;;;;;;;14.57;100.00;98121.97;6213368;23;20007;-83
2023/11/04 10:25:14;;;;;;;6.70;1.42;;;;;;;14.71;100.00;98095.97;6213870;23;20016;-86
2023/11/04 10:27:40;;;;;;;5.47;1.08;;;;;;;14.82;100.00;98038.34;6212802;23;20154;-86
2023/11/04 10:30:10;;;;;;;8.15;1.70;;;;;;;14.76;100.00;98034.16;6213008;23;20012;-85
2023/11/04 10:32:36;;;;;;;3.78;1.42;;;;;;;14.93;100.00;98028.22;6213159;23;20120;-86
2023/11/04 10:35:11;;;;;;;6.45;1.58;;;;;;;15.20;100.00;98048.94;6213320;23;20450;-86
2023/11/04 10:37:37;;;;;;;7.35;2.03;;;;;;;15.31;100.00;98054.88;6213101;23;20031;-86
2023/11/04 10:40:07;;;;;;;6.25;1.90;;;;;;;15.36;100.00;98072.78;6213279;23;20039;-85
2023/11/04 10:42:38;;;;;;;7.63;2.80;;;;;;;15.59;100.00;98081.72;6212859;23;20015;-85
2023/11/04 10:45:12;;;;;;;10.05;2.90;;;;;;;15.88;100.00;98091.38;6213517;23;20099;-86
2023/11/04 10:47:59;;;;;;;6.95;1.75;;;;;;;16.01;100.00;98067.13;6212865;23;20008;-84
2023/11/04 10:50:38;;;;;;;6.30;1.77;;;;;;;16.12;100.00;98046.22;6158090;23;20016;-86
2023/11/04 10:53:12;;;;;;;4.38;1.73;;;;;;;16.14;100.00;98041.31;6158132;23;20008;-86
2023/11/04 10:55:54;;;;;;;4.38;1.48;;;;;;;16.28;100.00;98033.16;6158003;23;20355;-86
2023/11/04 10:58:42;;;;;;;5.90;1.42;;;;;;;16.42;100.00;98043.88;6184165;23;20005;-86
2023/11/04 11:01:09;;;;;;;4.90;1.10;;;;;;;16.52;100.00;98049.00;6157004;23;20143;-86
2023/11/04 11:03:36;;;;;;;4.50;2.20;;;;;;;16.55;100.00;98023.38;6157909;23;20004;-86
2023/11/04 11:06:04;;;;;;;4.68;1.55;;;;;;;16.38;100.00;97994.47;6182543;23;20005;-85
2023/11/04 11:08:29;;;;;;;4.63;1.80;;;;;;;16.59;100.00;98008.19;6182310;23;20007;-86
2023/11/04 11:11:14;;;;;;;9.32;1.73;;;;;;;16.61;100.00;97987.97;6157576;23;20013;-85
2023/11/04 11:13:41;;;;;;;8.88;1.73;;;;;;;16.64;100.00;97981.94;6157756;23;20454;-86
2023/11/04 11:16:07;;;;;;;7.05;1.90;;;;;;;16.80;100.00;98006.56;6157784;23;20084;-86
2023/11/04 11:18:33;;;;;;;6.68;1.55;;;;;;;16.38;100.00;98011.41;6182427;23;20096;-86
2023/11/04 11:21:09;;;;;;;5.80;1.63;;;;;;;16.64;100.00;98061.91;6157939;23;20044;-85